sensor_id;sensor_type;location;lat;lon;timestamp;P1;durP1;ratioP1;P2;durP2;ratioP2
51020;SDS011;38907;45.562;8.856;2023-08-30T00:01:45;1.33;;;0.50;;
51020;SDS011;38907;45.562;8.856;2023-08-30T00:06:48;0.83;;;0.57;;
51020;SDS011;38907;45.562;8.856;2023-08-30T00:11:51;0.73;;;0.52;;
51020;SDS011;38907;45.562;8.856;2023-08-30T00:16:53;1.42;;;0.68;;
51020;SDS011;38907;45.562;8.856;2023-08-30T00:21:54;1.02;;;0.70;;
51020;SDS011;38907;45.562;8.856;2023-08-30T00:26:58;1.50;;;0.50;;
51020;SDS011;38907;45.562;8.856;2023-08-30T00:32:01;1.25;;;0.50;;
51020;SDS011;38907;45.562;8.856;2023-08-30T00:37:03;1.23;;;0.60;;
51020;SDS011;38907;45.562;8.856;2023-08-30T00:42:06;2.10;;;0.90;;
51020;SDS011;38907;45.562;8.856;2023-08-30T00:47:09;0.20;;;0.20;;
51020;SDS011;38907;45.562;8.856;2023-08-30T00:52:11;0.10;;;0.10;;
51020;SDS011;38907;45.562;8.856;2023-08-30T00:57:14;0.13;;;0.13;;
51020;SDS011;38907;45.562;8.856;2023-08-30T01:02:17;2.58;;;0.20;;
51020;SDS011;38907;45.562;8.856;2023-08-30T01:07:19;0.82;;;0.20;;
51020;SDS011;38907;45.562;8.856;2023-08-30T01:12:23;0.10;;;0.10;;
51020;SDS011;38907;45.562;8.856;2023-08-30T01:17:29;0.15;;;0.10;;
51020;SDS011;38907;45.562;8.856;2023-08-30T01:22:38;1.40;;;0.20;;
51020;SDS011;38907;45.562;8.856;2023-08-30T01:27:45;1.90;;;0.35;;
51020;SDS011;38907;45.562;8.856;2023-08-30T01:32:49;0.55;;;0.20;;
51020;SDS011;38907;45.562;8.856;2023-08-30T01:37:52;0.10;;;0.10;;
51020;SDS011;38907;45.562;8.856;2023-08-30T01:42:55;0.50;;;0.30;;
51020;SDS011;38907;45.562;8.856;2023-08-30T01:47:59;0.10;;;0.10;;
51020;SDS011;38907;45.562;8.856;2023-08-30T01:53:01;1.75;;;0.20;;
51020;SDS011;38907;45.562;8.856;2023-08-30T01:58:06;0.10;;;0.10;;
51020;SDS011;38907;45.562;8.856;2023-08-30T02:03:09;0.17;;;0.10;;
51020;SDS011;38907;45.562;8.856;2023-08-30T02:08:13;0.47;;;0.30;;
51020;SDS011;38907;45.562;8.856;2023-08-30T02:13:18;1.23;;;0.20;;
51020;SDS011;38907;45.562;8.856;2023-08-30T02:18:22;3.83;;;0.30;;
51020;SDS011;38907;45.562;8.856;2023-08-30T02:23:25;0.20;;;0.20;;
51020;SDS011;38907;45.562;8.856;2023-08-30T02:28:28;0.10;;;0.10;;
51020;SDS011;38907;45.562;8.856;2023-08-30T02:33:30;0.65;;;0.30;;
51020;SDS011;38907;45.562;8.856;2023-08-30T02:38:32;0.13;;;0.13;;
51020;SDS011;38907;45.562;8.856;2023-08-30T02:43:35;0.82;;;0.20;;
51020;SDS011;38907;45.562;8.856;2023-08-30T02:48:37;0.10;;;0.10;;
51020;SDS011;38907;45.562;8.856;2023-08-30T02:53:39;0.13;;;0.10;;
51020;SDS011;38907;45.562;8.856;2023-08-30T02:58:43;0.20;;;0.20;;
51020;SDS011;38907;45.562;8.856;2023-08-30T03:03:45;2.72;;;0.40;;
51020;SDS011;38907;45.562;8.856;2023-08-30T03:08:47;0.77;;;0.22;;
51020;SDS011;38907;45.562;8.856;2023-08-30T03:13:50;0.22;;;0.20;;
51020;SDS011;38907;45.562;8.856;2023-08-30T03:18:54;1.85;;;0.20;;
51020;SDS011;38907;45.562;8.856;2023-08-30T03:23:56;0.10;;;0.10;;
51020;SDS011;38907;45.562;8.856;2023-08-30T03:28:59;0.20;;;0.20;;
51020;SDS011;38907;45.562;8.856;2023-08-30T03:34:01;1.35;;;0.85;;
51020;SDS011;38907;45.562;8.856;2023-08-30T03:39:03;1.25;;;0.35;;
51020;SDS011;38907;45.562;8.856;2023-08-30T03:44:06;0.57;;;0.50;;
51020;SDS011;38907;45.562;8.856;2023-08-30T03:49:08;0.60;;;0.30;;
51020;SDS011;38907;45.562;8.856;2023-08-30T03:54:10;1.65;;;0.30;;
51020;SDS011;38907;45.562;8.856;2023-08-30T03:59:17;0.85;;;0.40;;
51020;SDS011;38907;45.562;8.856;2023-08-30T04:04:19;0.98;;;0.50;;
51020;SDS011;38907;45.562;8.856;2023-08-30T04:09:21;2.60;;;0.35;;
51020;SDS011;38907;45.562;8.856;2023-08-30T04:14:24;2.20;;;0.30;;
51020;SDS011;38907;45.562;8.856;2023-08-30T04:19:26;0.30;;;0.30;;
51020;SDS011;38907;45.562;8.856;2023-08-30T04:29:31;1.55;;;0.50;;
51020;SDS011;38907;45.562;8.856;2023-08-30T04:34:33;0.47;;;0.40;;
51020;SDS011;38907;45.562;8.856;2023-08-30T04:39:35;2.15;;;0.35;;
51020;SDS011;38907;45.562;8.856;2023-08-30T04:44:38;0.75;;;0.40;;
51020;SDS011;38907;45.562;8.856;2023-08-30T04:49:40;1.98;;;0.80;;
51020;SDS011;38907;45.562;8.856;2023-08-30T04:54:42;3.92;;;0.50;;
51020;SDS011;38907;45.562;8.856;2023-08-30T04:59:47;4.20;;;0.50;;
51020;SDS011;38907;45.562;8.856;2023-08-30T05:04:49;1.52;;;0.77;;
51020;SDS011;38907;45.562;8.856;2023-08-30T05:09:51;3.83;;;0.95;;
51020;SDS011;38907;45.562;8.856;2023-08-30T05:14:55;2.70;;;0.80;;
51020;SDS011;38907;45.562;8.856;2023-08-30T05:19:56;3.03;;;0.60;;
51020;SDS011;38907;45.562;8.856;2023-08-30T05:24:58;5.43;;;0.90;;
51020;SDS011;38907;45.562;8.856;2023-08-30T05:30:02;4.05;;;0.73;;
51020;SDS011;38907;45.562;8.856;2023-08-30T05:35:04;4.63;;;0.70;;
51020;SDS011;38907;45.562;8.856;2023-08-30T05:40:07;3.17;;;1.20;;
51020;SDS011;38907;45.562;8.856;2023-08-30T05:45:11;3.00;;;0.50;;
51020;SDS011;38907;45.562;8.856;2023-08-30T05:50:13;1.63;;;0.80;;
51020;SDS011;38907;45.562;8.856;2023-08-30T05:55:16;1.88;;;0.70;;
51020;SDS011;38907;45.562;8.856;2023-08-30T06:00:19;2.08;;;0.50;;
51020;SDS011;38907;45.562;8.856;2023-08-30T06:05:21;0.93;;;0.50;;
51020;SDS011;38907;45.562;8.856;2023-08-30T06:10:23;0.43;;;0.43;;
51020;SDS011;38907;45.562;8.856;2023-08-30T06:15:26;2.90;;;0.60;;
51020;SDS011;38907;45.562;8.856;2023-08-30T06:20:28;0.70;;;0.60;;
51020;SDS011;38907;45.562;8.856;2023-08-30T06:25:30;1.98;;;0.63;;
51020;SDS011;38907;45.562;8.856;2023-08-30T06:30:33;1.75;;;0.85;;
51020;SDS011;38907;45.562;8.856;2023-08-30T06:35:36;4.13;;;1.00;;
51020;SDS011;38907;45.562;8.856;2023-08-30T06:40:42;4.03;;;1.40;;
51020;SDS011;38907;45.562;8.856;2023-08-30T06:45:46;6.72;;;1.77;;
51020;SDS011;38907;45.562;8.856;2023-08-30T06:50:48;4.00;;;1.50;;
51020;SDS011;38907;45.562;8.856;2023-08-30T06:55:56;2.30;;;1.67;;
51020;SDS011;38907;45.562;8.856;2023-08-30T07:01:00;5.38;;;1.70;;
51020;SDS011;38907;45.562;8.856;2023-08-30T07:06:03;4.90;;;1.92;;
51020;SDS011;38907;45.562;8.856;2023-08-30T07:11:05;5.38;;;2.10;;
51020;SDS011;38907;45.562;8.856;2023-08-30T07:16:08;5.80;;;2.10;;
51020;SDS011;38907;45.562;8.856;2023-08-30T07:21:10;4.13;;;1.90;;
51020;SDS011;38907;45.562;8.856;2023-08-30T07:26:12;5.90;;;2.70;;
51020;SDS011;38907;45.562;8.856;2023-08-30T07:31:15;5.68;;;3.28;;
51020;SDS011;38907;45.562;8.856;2023-08-30T07:36:18;5.38;;;2.40;;
51020;SDS011;38907;45.562;8.856;2023-08-30T07:41:20;5.65;;;2.83;;
51020;SDS011;38907;45.562;8.856;2023-08-30T07:46:23;6.07;;;3.88;;
51020;SDS011;38907;45.562;8.856;2023-08-30T07:51:26;4.72;;;3.40;;
51020;SDS011;38907;45.562;8.856;2023-08-30T07:56:28;9.90;;;4.13;;
51020;SDS011;38907;45.562;8.856;2023-08-30T08:01:31;5.57;;;4.03;;
51020;SDS011;38907;45.562;8.856;2023-08-30T08:06:33;6.57;;;3.40;;
51020;SDS011;38907;45.562;8.856;2023-08-30T08:11:35;4.90;;;2.87;;
51020;SDS011;38907;45.562;8.856;2023-08-30T08:16:41;5.22;;;3.00;;
51020;SDS011;38907;45.562;8.856;2023-08-30T08:21:44;7.40;;;2.92;;
51020;SDS011;38907;45.562;8.856;2023-08-30T08:26:46;4.85;;;2.88;;
51020;SDS011;38907;45.562;8.856;2023-08-30T08:31:50;5.43;;;2.55;;
51020;SDS011;38907;45.562;8.856;2023-08-30T08:36:54;4.63;;;2.97;;
51020;SDS011;38907;45.562;8.856;2023-08-30T08:41:56;3.45;;;2.50;;
51020;SDS011;38907;45.562;8.856;2023-08-30T08:47:01;7.05;;;2.50;;
51020;SDS011;38907;45.562;8.856;2023-08-30T08:52:04;4.50;;;2.28;;
51020;SDS011;38907;45.562;8.856;2023-08-30T08:57:07;2.97;;;1.35;;
51020;SDS011;38907;45.562;8.856;2023-08-30T09:02:12;3.92;;;1.90;;
51020;SDS011;38907;45.562;8.856;2023-08-30T09:07:16;3.25;;;2.10;;
51020;SDS011;38907;45.562;8.856;2023-08-30T09:12:19;4.88;;;2.55;;
51020;SDS011;38907;45.562;8.856;2023-08-30T09:17:23;5.97;;;2.88;;
51020;SDS011;38907;45.562;8.856;2023-08-30T09:22:36;3.83;;;2.40;;
51020;SDS011;38907;45.562;8.856;2023-08-30T09:27:38;2.78;;;2.10;;
51020;SDS011;38907;45.562;8.856;2023-08-30T09:32:43;6.28;;;3.22;;
51020;SDS011;38907;45.562;8.856;2023-08-30T09:37:45;6.78;;;2.55;;
51020;SDS011;38907;45.562;8.856;2023-08-30T09:42:47;2.95;;;1.95;;
51020;SDS011;38907;45.562;8.856;2023-08-30T09:47:50;5.25;;;2.22;;
51020;SDS011;38907;45.562;8.856;2023-08-30T09:52:53;3.35;;;1.33;;
51020;SDS011;38907;45.562;8.856;2023-08-30T09:57:55;2.22;;;1.00;;
51020;SDS011;38907;45.562;8.856;2023-08-30T10:02:59;1.45;;;1.00;;
51020;SDS011;38907;45.562;8.856;2023-08-30T10:08:02;2.90;;;1.58;;
51020;SDS011;38907;45.562;8.856;2023-08-30T10:13:05;2.47;;;1.30;;
51020;SDS011;38907;45.562;8.856;2023-08-30T10:18:08;4.43;;;1.27;;
51020;SDS011;38907;45.562;8.856;2023-08-30T10:23:12;4.47;;;1.27;;
51020;SDS011;38907;45.562;8.856;2023-08-30T10:28:16;2.72;;;1.23;;
51020;SDS011;38907;45.562;8.856;2023-08-30T10:33:21;2.40;;;1.42;;
51020;SDS011;38907;45.562;8.856;2023-08-30T10:38:26;3.63;;;1.33;;
51020;SDS011;38907;45.562;8.856;2023-08-30T10:48:36;4.87;;;1.60;;
51020;SDS011;38907;45.562;8.856;2023-08-30T10:53:38;4.40;;;1.80;;
51020;SDS011;38907;45.562;8.856;2023-08-30T10:58:40;1.80;;;1.20;;
51020;SDS011;38907;45.562;8.856;2023-08-30T11:03:45;3.35;;;1.40;;
51020;SDS011;38907;45.562;8.856;2023-08-30T11:08:47;4.07;;;1.40;;
51020;SDS011;38907;45.562;8.856;2023-08-30T11:13:51;4.63;;;1.27;;
51020;SDS011;38907;45.562;8.856;2023-08-30T11:18:55;1.83;;;1.10;;
51020;SDS011;38907;45.562;8.856;2023-08-30T11:23:56;6.72;;;1.20;;
51020;SDS011;38907;45.562;8.856;2023-08-30T11:29:03;3.17;;;1.42;;
51020;SDS011;38907;45.562;8.856;2023-08-30T11:34:07;2.20;;;1.00;;
51020;SDS011;38907;45.562;8.856;2023-08-30T11:39:09;4.28;;;1.42;;
51020;SDS011;38907;45.562;8.856;2023-08-30T11:49:14;3.45;;;1.10;;
51020;SDS011;38907;45.562;8.856;2023-08-30T11:54:17;1.90;;;1.10;;
51020;SDS011;38907;45.562;8.856;2023-08-30T11:59:20;3.08;;;1.38;;
51020;SDS011;38907;45.562;8.856;2023-08-30T12:04:23;2.15;;;1.40;;
51020;SDS011;38907;45.562;8.856;2023-08-30T12:09:29;5.13;;;1.50;;
51020;SDS011;38907;45.562;8.856;2023-08-30T12:14:35;1.60;;;1.10;;
51020;SDS011;38907;45.562;8.856;2023-08-30T12:19:38;2.60;;;1.20;;
51020;SDS011;38907;45.562;8.856;2023-08-30T12:24:46;1.88;;;1.10;;
51020;SDS011;38907;45.562;8.856;2023-08-30T12:29:53;2.38;;;1.45;;
51020;SDS011;38907;45.562;8.856;2023-08-30T12:34:56;2.92;;;1.40;;
51020;SDS011;38907;45.562;8.856;2023-08-30T12:39:58;2.63;;;1.75;;
51020;SDS011;38907;45.562;8.856;2023-08-30T12:45:00;3.88;;;1.60;;
51020;SDS011;38907;45.562;8.856;2023-08-30T12:50:05;2.08;;;1.30;;
51020;SDS011;38907;45.562;8.856;2023-08-30T12:55:08;1.98;;;1.20;;
51020;SDS011;38907;45.562;8.856;2023-08-30T13:00:11;1.90;;;1.30;;
51020;SDS011;38907;45.562;8.856;2023-08-30T13:05:15;2.67;;;1.67;;
51020;SDS011;38907;45.562;8.856;2023-08-30T13:10:17;6.38;;;1.33;;
51020;SDS011;38907;45.562;8.856;2023-08-30T13:20:22;3.83;;;1.63;;
51020;SDS011;38907;45.562;8.856;2023-08-30T13:25:24;3.75;;;1.50;;
51020;SDS011;38907;45.562;8.856;2023-08-30T13:30:26;2.50;;;1.48;;
51020;SDS011;38907;45.562;8.856;2023-08-30T13:35:30;2.97;;;1.30;;
51020;SDS011;38907;45.562;8.856;2023-08-30T13:40:32;4.00;;;1.20;;
51020;SDS011;38907;45.562;8.856;2023-08-30T13:45:33;4.10;;;1.50;;
51020;SDS011;38907;45.562;8.856;2023-08-30T13:50:41;3.45;;;1.20;;
51020;SDS011;38907;45.562;8.856;2023-08-30T13:55:44;1.30;;;1.20;;
51020;SDS011;38907;45.562;8.856;2023-08-30T14:00:48;2.47;;;1.38;;
51020;SDS011;38907;45.562;8.856;2023-08-30T14:05:51;1.23;;;1.02;;
51020;SDS011;38907;45.562;8.856;2023-08-30T14:10:54;1.50;;;1.23;;
51020;SDS011;38907;45.562;8.856;2023-08-30T14:15:56;3.95;;;1.27;;
51020;SDS011;38907;45.562;8.856;2023-08-30T14:20:59;3.25;;;1.48;;
51020;SDS011;38907;45.562;8.856;2023-08-30T14:26:02;3.50;;;1.40;;
51020;SDS011;38907;45.562;8.856;2023-08-30T14:31:09;4.50;;;0.95;;
51020;SDS011;38907;45.562;8.856;2023-08-30T14:36:13;1.83;;;1.17;;
51020;SDS011;38907;45.562;8.856;2023-08-30T14:41:15;2.33;;;1.23;;
51020;SDS011;38907;45.562;8.856;2023-08-30T14:46:17;2.33;;;0.90;;
51020;SDS011;38907;45.562;8.856;2023-08-30T14:51:21;2.97;;;1.27;;
51020;SDS011;38907;45.562;8.856;2023-08-30T14:56:23;2.80;;;0.90;;
51020;SDS011;38907;45.562;8.856;2023-08-30T15:01:24;1.73;;;0.80;;
51020;SDS011;38907;45.562;8.856;2023-08-30T15:06:28;1.05;;;0.75;;
51020;SDS011;38907;45.562;8.856;2023-08-30T15:11:30;1.55;;;0.73;;
51020;SDS011;38907;45.562;8.856;2023-08-30T15:16:32;1.65;;;0.80;;
51020;SDS011;38907;45.562;8.856;2023-08-30T15:21:36;3.28;;;0.70;;
51020;SDS011;38907;45.562;8.856;2023-08-30T15:26:38;1.33;;;0.70;;
51020;SDS011;38907;45.562;8.856;2023-08-30T15:36:43;0.80;;;0.70;;
51020;SDS011;38907;45.562;8.856;2023-08-30T15:41:45;2.65;;;0.70;;
51020;SDS011;38907;45.562;8.856;2023-08-30T15:46:48;0.98;;;0.60;;
51020;SDS011;38907;45.562;8.856;2023-08-30T15:51:51;0.95;;;0.50;;
51020;SDS011;38907;45.562;8.856;2023-08-30T15:56:53;0.80;;;0.60;;
51020;SDS011;38907;45.562;8.856;2023-08-30T16:01:55;1.50;;;0.77;;
51020;SDS011;38907;45.562;8.856;2023-08-30T16:06:58;2.38;;;0.80;;
51020;SDS011;38907;45.562;8.856;2023-08-30T16:12:00;0.70;;;0.52;;
51020;SDS011;38907;45.562;8.856;2023-08-30T16:17:02;1.60;;;0.60;;
51020;SDS011;38907;45.562;8.856;2023-08-30T16:27:07;2.15;;;0.60;;
51020;SDS011;38907;45.562;8.856;2023-08-30T16:32:09;1.13;;;0.50;;
51020;SDS011;38907;45.562;8.856;2023-08-30T16:37:12;3.05;;;0.68;;
51020;SDS011;38907;45.562;8.856;2023-08-30T16:42:14;1.10;;;0.60;;
51020;SDS011;38907;45.562;8.856;2023-08-30T16:47:16;0.50;;;0.47;;
51020;SDS011;38907;45.562;8.856;2023-08-30T16:52:20;0.70;;;0.45;;
51020;SDS011;38907;45.562;8.856;2023-08-30T16:57:22;1.52;;;0.50;;
51020;SDS011;38907;45.562;8.856;2023-08-30T17:02:28;0.47;;;0.43;;
51020;SDS011;38907;45.562;8.856;2023-08-30T17:07:32;1.02;;;0.50;;
51020;SDS011;38907;45.562;8.856;2023-08-30T17:12:35;0.73;;;0.50;;
51020;SDS011;38907;45.562;8.856;2023-08-30T17:17:37;0.50;;;0.50;;
51020;SDS011;38907;45.562;8.856;2023-08-30T17:22:40;1.05;;;0.40;;
51020;SDS011;38907;45.562;8.856;2023-08-30T17:27:42;0.73;;;0.40;;
51020;SDS011;38907;45.562;8.856;2023-08-30T17:32:44;0.57;;;0.52;;
51020;SDS011;38907;45.562;8.856;2023-08-30T17:37:48;1.08;;;0.40;;
51020;SDS011;38907;45.562;8.856;2023-08-30T17:42:50;0.20;;;0.20;;
51020;SDS011;38907;45.562;8.856;2023-08-30T17:47:52;4.60;;;0.40;;
51020;SDS011;38907;45.562;8.856;2023-08-30T17:52:56;2.42;;;0.40;;
51020;SDS011;38907;45.562;8.856;2023-08-30T17:57:57;2.33;;;0.70;;
51020;SDS011;38907;45.562;8.856;2023-08-30T18:02:59;2.40;;;0.52;;
51020;SDS011;38907;45.562;8.856;2023-08-30T18:08:05;0.52;;;0.40;;
51020;SDS011;38907;45.562;8.856;2023-08-30T18:13:07;1.90;;;0.60;;
51020;SDS011;38907;45.562;8.856;2023-08-30T18:18:08;0.95;;;0.38;;
51020;SDS011;38907;45.562;8.856;2023-08-30T18:23:12;0.75;;;0.50;;
51020;SDS011;38907;45.562;8.856;2023-08-30T18:28:15;1.85;;;0.43;;
51020;SDS011;38907;45.562;8.856;2023-08-30T18:33:18;1.10;;;0.60;;
51020;SDS011;38907;45.562;8.856;2023-08-30T18:38:21;5.33;;;0.63;;
51020;SDS011;38907;45.562;8.856;2023-08-30T18:43:25;2.83;;;0.50;;
51020;SDS011;38907;45.562;8.856;2023-08-30T18:48:27;2.70;;;0.50;;
51020;SDS011;38907;45.562;8.856;2023-08-30T18:53:30;2.15;;;0.40;;
51020;SDS011;38907;45.562;8.856;2023-08-30T18:58:32;1.70;;;0.65;;
51020;SDS011;38907;45.562;8.856;2023-08-30T19:03:34;2.00;;;0.50;;
51020;SDS011;38907;45.562;8.856;2023-08-30T19:08:40;1.73;;;0.60;;
51020;SDS011;38907;45.562;8.856;2023-08-30T19:13:42;1.27;;;0.90;;
51020;SDS011;38907;45.562;8.856;2023-08-30T19:18:45;1.73;;;0.80;;
51020;SDS011;38907;45.562;8.856;2023-08-30T19:23:49;0.95;;;0.70;;
51020;SDS011;38907;45.562;8.856;2023-08-30T19:28:51;2.53;;;0.50;;
51020;SDS011;38907;45.562;8.856;2023-08-30T19:33:56;3.83;;;0.50;;
51020;SDS011;38907;45.562;8.856;2023-08-30T19:39:00;6.72;;;0.73;;
51020;SDS011;38907;45.562;8.856;2023-08-30T19:44:03;4.75;;;0.70;;
51020;SDS011;38907;45.562;8.856;2023-08-30T19:54:09;1.52;;;0.60;;
51020;SDS011;38907;45.562;8.856;2023-08-30T19:59:11;1.20;;;0.52;;
51020;SDS011;38907;45.562;8.856;2023-08-30T20:04:13;2.23;;;0.70;;
51020;SDS011;38907;45.562;8.856;2023-08-30T20:09:16;2.30;;;0.60;;
51020;SDS011;38907;45.562;8.856;2023-08-30T20:14:20;1.38;;;0.60;;
51020;SDS011;38907;45.562;8.856;2023-08-30T20:19:22;1.00;;;0.55;;
51020;SDS011;38907;45.562;8.856;2023-08-30T20:24:26;3.22;;;0.70;;
51020;SDS011;38907;45.562;8.856;2023-08-30T20:29:28;1.42;;;0.50;;
51020;SDS011;38907;45.562;8.856;2023-08-30T20:34:31;1.23;;;0.60;;
51020;SDS011;38907;45.562;8.856;2023-08-30T20:39:35;1.63;;;0.70;;
51020;SDS011;38907;45.562;8.856;2023-08-30T20:44:37;4.00;;;0.60;;
51020;SDS011;38907;45.562;8.856;2023-08-30T20:49:40;1.23;;;0.83;;
51020;SDS011;38907;45.562;8.856;2023-08-30T20:54:45;4.38;;;1.25;;
51020;SDS011;38907;45.562;8.856;2023-08-30T20:59:48;1.70;;;1.05;;
51020;SDS011;38907;45.562;8.856;2023-08-30T21:04:51;3.65;;;1.15;;
51020;SDS011;38907;45.562;8.856;2023-08-30T21:09:58;4.25;;;1.10;;
51020;SDS011;38907;45.562;8.856;2023-08-30T21:14:59;4.90;;;1.05;;
51020;SDS011;38907;45.562;8.856;2023-08-30T21:20:03;3.17;;;1.10;;
51020;SDS011;38907;45.562;8.856;2023-08-30T21:25:08;2.80;;;1.20;;
51020;SDS011;38907;45.562;8.856;2023-08-30T21:30:10;3.22;;;1.35;;
51020;SDS011;38907;45.562;8.856;2023-08-30T21:40:16;2.03;;;1.08;;
51020;SDS011;38907;45.562;8.856;2023-08-30T21:45:18;3.00;;;1.23;;
51020;SDS011;38907;45.562;8.856;2023-08-30T21:50:20;3.53;;;1.20;;
51020;SDS011;38907;45.562;8.856;2023-08-30T21:55:23;2.23;;;1.10;;
51020;SDS011;38907;45.562;8.856;2023-08-30T22:00:25;2.20;;;1.10;;
51020;SDS011;38907;45.562;8.856;2023-08-30T22:05:28;2.13;;;1.05;;
51020;SDS011;38907;45.562;8.856;2023-08-30T22:10:31;1.63;;;0.80;;
51020;SDS011;38907;45.562;8.856;2023-08-30T22:15:33;2.08;;;1.00;;
51020;SDS011;38907;45.562;8.856;2023-08-30T22:20:35;2.37;;;1.00;;
51020;SDS011;38907;45.562;8.856;2023-08-30T22:25:38;2.23;;;0.80;;
51020;SDS011;38907;45.562;8.856;2023-08-30T22:30:40;5.07;;;1.10;;
51020;SDS011;38907;45.562;8.856;2023-08-30T22:35:42;3.17;;;1.00;;
51020;SDS011;38907;45.562;8.856;2023-08-30T22:40:46;1.10;;;0.80;;
51020;SDS011;38907;45.562;8.856;2023-08-30T22:45:48;2.58;;;1.00;;
51020;SDS011;38907;45.562;8.856;2023-08-30T22:50:50;1.80;;;0.97;;
51020;SDS011;38907;45.562;8.856;2023-08-30T22:55:53;3.85;;;1.20;;
51020;SDS011;38907;45.562;8.856;2023-08-30T23:01:02;1.33;;;0.80;;
51020;SDS011;38907;45.562;8.856;2023-08-30T23:06:05;1.88;;;0.75;;
51020;SDS011;38907;45.562;8.856;2023-08-30T23:11:08;2.37;;;0.90;;
51020;SDS011;38907;45.562;8.856;2023-08-30T23:16:10;2.65;;;0.85;;
51020;SDS011;38907;45.562;8.856;2023-08-30T23:26:17;3.92;;;0.98;;
51020;SDS011;38907;45.562;8.856;2023-08-30T23:31:19;2.08;;;1.02;;
51020;SDS011;38907;45.562;8.856;2023-08-30T23:36:21;2.70;;;1.17;;
51020;SDS011;38907;45.562;8.856;2023-08-30T23:46:27;2.60;;;1.27;;
51020;SDS011;38907;45.562;8.856;2023-08-30T23:51:29;2.30;;;1.20;;
51020;SDS011;38907;45.562;8.856;2023-08-30T23:56:32;2.90;;;1.33;;
